Terminal Aerodrome Forecast
Issued by NWS

Home | Current Version | Previous Version | Text Only | Print | Product List | Glossary On
Versions: 1 2 3 4 5 6 7 8 9 10 11 12 13 14 15 16 17 18
000
FTUS43 KICT 071742
TAFCNU
TAF
KCNU 071742Z 0718/0818 02013KT 4SM -DZ VCSH SCT008 OVC015
      TEMPO 0718/0721 2SM RA OVC008
     FM080500 07008KT 4SM RA SCT008 OVC015=

USA.gov is the U.S. government's official web portal to all federal, state and local government web resources and services.